Time;durP1;ratioP1;P1;durP2;ratioP2;P2;SDS_P1;SDS_P2;PMS_P1;PMS_P2;Temp;Humidity;BMP_temperature;BMP_pressure;BME280_temperature;BME280_humidity;BME280_pressure;Samples;Min_cycle;Max_cycle;Signal;HPM_P1;HPM_P2
2023/02/13 00:00:58;;;;;;;;;;;;;;;17.04;35.71;102835.78;5079231;28;1058;-54
2023/02/13 00:03:24;;;;;;;;;;;;;;;18.01;33.89;102837.84;5078859;28;1064;-53
2023/02/13 00:05:49;;;;;;;;;;;;;;;16.68;36.11;102845.59;5079032;28;1915;-55
2023/02/13 00:08:14;;;;;;;;;;;;;;;16.21;37.21;102851.41;5078961;28;1105;-51
2023/02/13 00:10:40;;;;;;;;;;;;;;;16.85;36.37;102845.88;5079274;28;1003;-46
2023/02/13 00:13:05;;;;;;;;;;;;;;;16.56;36.36;102848.22;5078557;28;1115;-56
2023/02/13 00:15:31;;;;;;;;;;;;;;;16.61;36.75;102848.38;5078994;28;986;-52
2023/02/13 00:17:56;;;;;;;;;;;;;;;17.75;34.32;102848.13;5078728;28;2629;-53
2023/02/13 00:20:22;;;;;;;;;;;;;;;16.52;36.74;102844.22;5078795;28;1066;-50
2023/02/13 00:22:47;;;;;;;;;;;;;;;16.10;37.38;102854.84;5079127;28;1067;-55
2023/02/13 00:25:13;;;;;;;;;;;;;;;16.47;37.05;102855.06;5078834;28;1898;-52
2023/02/13 00:27:38;;;;;;;;;;;;;;;16.55;36.59;102855.63;5077892;28;953;-52
2023/02/13 00:30:04;;;;;;;;;;;;;;;15.94;37.85;102861.69;5078668;28;999;-54
2023/02/13 00:32:30;;;;;;;;;;;;;;;16.75;36.21;102866.44;5078512;28;1140;-51
2023/02/13 00:34:56;;;;;;;;;;;;;;;16.16;37.25;102864.94;5078552;28;1057;-57
2023/02/13 00:37:21;;;;;;;;;;;;;;;16.47;36.75;102866.88;5077294;28;1324;-53
2023/02/13 00:39:50;;;;;;;;;;;;;;;17.19;34.95;102866.50;5078301;28;937;-55
2023/02/13 00:42:17;;;;;;;;;;;;;;;16.14;37.19;102869.81;5110547;28;1167;-51
2023/02/13 00:44:43;;;;;;;;;;;;;;;16.31;37.33;102886.59;5077071;28;1913;-48
2023/02/13 00:47:09;;;;;;;;;;;;;;;16.63;36.13;102865.47;5078528;28;2340;-52
2023/02/13 00:49:34;;;;;;;;;;;;;;;16.24;37.39;102875.66;5075508;28;1269;-54
2023/02/13 00:52:01;;;;;;;;;;;;;;;18.12;33.73;102864.59;5078029;28;988;-50
2023/02/13 00:54:26;;;;;;;;;;;;;;;16.40;36.78;102885.28;5078175;28;1019;-52
2023/02/13 00:56:52;;;;;;;;;;;;;;;16.83;36.14;102872.72;5078302;28;1063;-52
2023/02/13 00:59:17;;;;;;;;;;;;;;;17.20;35.11;102872.84;5078113;28;1027;-53
2023/02/13 01:01:43;;;;;;;;;;;;;;;16.27;37.32;102879.88;5076696;28;1086;-54
2023/02/13 01:04:08;;;;;;;;;;;;;;;16.39;37.10;102884.44;5076243;28;1966;-54
2023/02/13 01:06:33;;;;;;;;;;;;;;;16.45;36.67;102884.63;5077971;28;1038;-53
2023/02/13 01:08:59;;;;;;;;;;;;;;;15.94;37.90;102881.72;5076657;28;1135;-54
2023/02/13 01:11:24;;;;;;;;;;;;;;;17.59;34.49;102876.25;5077178;28;1058;-51
2023/02/13 01:13:50;;;;;;;;;;;;;;;16.22;36.98;102872.31;5078172;28;1092;-55
2023/02/13 01:16:18;;;;;;;;;;;;;;;16.64;36.47;102874.56;5076078;28;1884;-54
2023/02/13 01:18:44;;;;;;;;;;;;;;;16.72;36.35;102866.06;5077615;28;1019;-55
2023/02/13 01:21:14;;;;;;;;;;;;;;;15.96;37.66;102867.78;5077850;28;1067;-57
2023/02/13 01:23:39;;;;;;;;;;;;;;;17.48;35.02;102857.75;5076543;28;1122;-56
2023/02/13 01:26:05;;;;;;;;;;;;;;;16.21;37.03;102871.44;5077557;28;1902;-55
2023/02/13 01:28:31;;;;;;;;;;;;;;;16.82;36.39;102862.81;5077133;28;879;-53
2023/02/13 01:30:56;;;;;;;;;;;;;;;16.97;35.84;102862.47;5076167;28;1048;-54
2023/02/13 01:33:23;;;;;;;;;;;;;;;16.12;37.58;102866.44;5077551;28;1186;-56
2023/02/13 01:35:48;;;;;;;;;;;;;;;17.45;35.16;102861.81;5076095;28;1534;-57
2023/02/13 01:38:14;;;;;;;;;;;;;;;16.32;37.04;102864.41;5075925;28;1051;-54
2023/02/13 01:40:45;;;;;;;;;;;;;;;15.99;37.53;102868.22;5076985;28;985;-55
2023/02/13 01:43:11;;;;;;;;;;;;;;;16.96;35.52;102867.16;5075909;28;1533;-56
2023/02/13 01:45:36;;;;;;;;;;;;;;;16.91;36.04;102864.22;5077001;28;1902;-57
2023/02/13 01:48:02;;;;;;;;;;;;;;;18.39;33.13;102858.69;5077155;28;2520;-52
2023/02/13 01:50:31;;;;;;;;;;;;;;;17.03;35.47;102872.59;5075664;28;1116;-52
2023/02/13 01:52:59;;;;;;;;;;;;;;;16.33;37.10;102879.84;5076759;28;869;-55
2023/02/13 01:55:24;;;;;;;;;;;;;;;16.04;37.73;102868.38;5075499;28;1086;-53
2023/02/13 01:57:53;;;;;;;;;;;;;;;16.99;35.80;102866.69;5075562;28;1230;-51
2023/02/13 02:00:18;;;;;;;;;;;;;;;16.12;37.24;102871.91;5092520;28;1584;-55
2023/02/13 02:02:44;;;;;;;;;;;;;;;17.98;34.13;102868.59;5076488;28;1332;-55
2023/02/13 02:05:10;;;;;;;;;;;;;;;16.87;35.78;102866.56;5076676;28;2059;-55
2023/02/13 02:07:35;;;;;;;;;;;;;;;16.27;37.12;102869.75;5076570;28;1170;-56
2023/02/13 02:10:08;;;;;;;;;;;;;;;17.57;34.84;102864.63;5075334;28;1292;-54
2023/02/13 02:12:43;;;;;;;;;;;;;;;16.25;37.22;102869.13;5076787;28;1114;-54
2023/02/13 02:15:10;;;;;;;;;;;;;;;15.87;37.61;102867.19;5058809;28;1322;-50
2023/02/13 02:17:36;;;;;;;;;;;;;;;17.51;34.90;102868.28;5087618;28;2581;-57
2023/02/13 02:20:20;;;;;;;;;;;;;;;16.28;37.10;102876.91;5092376;28;1235;-55
2023/02/13 02:22:46;;;;;;;;;;;;;;;17.77;34.40;102876.22;5074156;28;1107;-55
2023/02/13 02:25:30;;;;;;;;;;;;;;;17.37;34.80;102887.69;5075324;28;1973;-52
2023/02/13 02:28:04;;;;;;;;;;;;;;;16.34;36.73;102887.03;5074901;28;1153;-54
2023/02/13 02:30:30;;;;;;;;;;;;;;;16.00;37.72;102888.25;5074894;28;1245;-52
2023/02/13 02:32:56;;;;;;;;;;;;;;;16.67;36.08;102877.69;5076031;28;1091;-52
2023/02/13 02:35:21;;;;;;;;;;;;;;;15.89;37.68;102885.13;5075579;28;1121;-52
2023/02/13 02:37:47;;;;;;;;;;;;;;;17.60;34.68;102888.94;5076276;28;1039;-53
2023/02/13 02:40:13;;;;;;;;;;;;;;;16.45;36.50;102893.69;5076007;28;1050;-54
2023/02/13 02:42:41;;;;;;;;;;;;;;;17.43;35.03;102903.28;5075252;28;1033;-53
2023/02/13 02:45:24;;;;;;;;;;;;;;;17.55;34.43;102897.03;5076728;28;1976;-51
2023/02/13 02:50:49;;;;;;;;;;;;;;;16.05;37.65;102911.22;5091487;28;1137;-50
2023/02/13 02:53:22;;;;;;;;;;;;;;;16.85;35.74;102909.06;5074451;28;1121;-52
2023/02/13 02:55:55;;;;;;;;;;;;;;;16.02;37.61;102911.66;5108418;28;1062;-54
2023/02/13 03:06:48;;;;;;;;;;;;;;;17.26;34.93;102904.94;5089031;28;1295;-56
2023/02/13 03:14:52;;;;;;;;;;;;;;;16.31;37.09;102908.56;5075007;28;1163;-54
2023/02/13 03:22:57;;;;;;;;;;;;;;;15.87;37.88;102897.38;5075746;28;1146;-54
2023/02/13 03:25:29;;;;;;;;;;;;;;;17.20;35.24;102900.34;5074735;28;1910;-56
2023/02/13 03:30:49;;;;;;;;;;;;;;;15.56;38.29;102915.38;5074990;28;1019;-54
2023/02/13 03:33:30;;;;;;;;;;;;;;;16.75;35.83;102904.91;5076437;28;1166;-54
2023/02/13 03:39:18;;;;;;;;;;;;;;;18.08;33.33;102903.84;5061411;28;1120;-58
2023/02/13 03:41:43;;;;;;;;;;;;;;;16.60;36.25;102905.22;5079119;28;925;-56
2023/02/13 03:44:12;;;;;;;;;;;;;;;16.10;37.34;102901.50;5079718;28;1103;-57
2023/02/13 03:46:41;;;;;;;;;;;;;;;16.76;36.45;102906.59;5079128;28;1977;-56
2023/02/13 03:51:53;;;;;;;;;;;;;;;15.85;38.03;102910.47;5107014;28;1173;-53
2023/02/13 03:59:53;;;;;;;;;;;;;;;16.69;36.29;102908.56;5079465;28;1095;-52
2023/02/13 04:02:19;;;;;;;;;;;;;;;16.25;36.92;102900.13;5079310;28;1166;-58
2023/02/13 04:04:47;;;;;;;;;;;;;;;17.32;34.99;102903.19;5077577;28;1914;-58
2023/02/13 04:07:28;;;;;;;;;;;;;;;17.85;33.89;102902.63;5077908;28;1225;-53
2023/02/13 04:09:54;;;;;;;;;;;;;;;16.32;36.88;102900.13;5107920;28;1054;-56
2023/02/13 04:12:20;;;;;;;;;;;;;;;16.31;36.81;102903.91;5077900;28;1020;-56
2023/02/13 04:14:52;;;;;;;;;;;;;;;16.47;36.69;102907.22;5078619;28;1039;-58
2023/02/13 04:17:29;;;;;;;;;;;;;;;16.98;35.67;102908.97;5077286;28;2584;-55
2023/02/13 04:19:54;;;;;;;;;;;;;;;17.82;33.78;102897.53;5077980;28;1163;-54
2023/02/13 04:22:20;;;;;;;;;;;;;;;16.40;36.51;102913.59;5079033;28;1058;-53
2023/02/13 04:24:45;;;;;;;;;;;;;;;16.41;36.97;102909.78;5079026;28;1979;-54
2023/02/13 04:27:12;;;;;;;;;;;;;;;16.55;36.41;102921.53;5078550;28;1015;-54
2023/02/13 04:29:38;;;;;;;;;;;;;;;16.42;36.62;102916.97;5077381;28;1064;-55
2023/02/13 04:32:04;;;;;;;;;;;;;;;18.10;33.40;102904.44;5079014;28;1121;-52
2023/02/13 04:34:29;;;;;;;;;;;;;;;16.52;36.53;102910.13;5078599;28;1066;-57
2023/02/13 04:36:55;;;;;;;;;;;;;;;16.11;37.07;102904.03;5078689;28;1094;-53
2023/02/13 04:39:20;;;;;;;;;;;;;;;16.67;36.22;102909.84;5078507;28;1083;-56
2023/02/13 04:41:46;;;;;;;;;;;;;;;16.48;36.75;102906.16;5078054;28;1038;-61
2023/02/13 04:44:11;;;;;;;;;;;;;;;18.32;33.26;102906.69;5077979;28;1184;-58
2023/02/13 04:46:37;;;;;;;;;;;;;;;16.75;35.97;102904.91;5077399;28;2359;-60
2023/02/13 04:49:02;;;;;;;;;;;;;;;16.21;37.30;102903.56;5078605;28;1035;-55
2023/02/13 04:51:28;;;;;;;;;;;;;;;16.99;35.38;102907.91;5078304;28;1039;-53
2023/02/13 04:53:53;;;;;;;;;;;;;;;16.15;37.29;102909.94;5078262;28;1174;-56
2023/02/13 04:56:19;;;;;;;;;;;;;;;17.62;34.60;102909.63;5078312;28;1075;-54
2023/02/13 04:58:44;;;;;;;;;;;;;;;16.59;36.36;102917.28;5078146;28;1103;-53
2023/02/13 05:01:10;;;;;;;;;;;;;;;15.96;37.41;102923.50;5078149;28;1125;-54
2023/02/13 05:03:36;;;;;;;;;;;;;;;16.99;35.55;102913.41;5078331;28;1078;-55
2023/02/13 05:06:01;;;;;;;;;;;;;;;15.99;37.39;102916.75;5077625;28;1973;-53
2023/02/13 05:08:27;;;;;;;;;;;;;;;17.92;34.01;102914.41;5078040;28;1007;-50
2023/02/13 05:10:52;;;;;;;;;;;;;;;16.99;35.33;102918.91;5078361;28;1003;-53
2023/02/13 05:13:20;;;;;;;;;;;;;;;16.23;37.08;102926.16;5058922;28;1187;-54
2023/02/13 05:15:46;;;;;;;;;;;;;;;16.90;36.00;102933.97;5060658;28;2275;-52
2023/02/13 05:18:12;;;;;;;;;;;;;;;16.31;36.76;102923.13;5089826;28;1025;-50
2023/02/13 05:20:37;;;;;;;;;;;;;;;16.99;35.50;102927.16;5057496;28;1186;-54
2023/02/13 05:25:46;;;;;;;;;;;;;;;16.38;36.92;102940.44;5076558;28;1921;-52
2023/02/13 05:30:56;;;;;;;;;;;;;;;16.38;36.49;102929.44;5077345;28;1019;-56
2023/02/13 05:33:21;;;;;;;;;;;;;;;16.11;37.38;102933.38;5077618;28;1015;-52
2023/02/13 05:35:46;;;;;;;;;;;;;;;17.04;35.41;102945.72;5077363;28;1066;-55
2023/02/13 05:38:12;;;;;;;;;;;;;;;16.13;37.34;102942.22;5077326;28;1163;-58
2023/02/13 05:40:37;;;;;;;;;;;;;;;17.27;35.04;102945.94;5076761;28;980;-57
2023/02/13 05:43:03;;;;;;;;;;;;;;;16.49;36.51;102952.59;5077133;28;1186;-55
2023/02/13 05:45:28;;;;;;;;;;;;;;;16.69;36.41;102951.63;5077043;28;1917;-55
2023/02/13 05:47:53;;;;;;;;;;;;;;;17.54;34.20;102955.84;5077137;28;2562;-56
2023/02/13 05:50:19;;;;;;;;;;;;;;;16.33;36.86;102956.72;5077143;28;1142;-53
2023/02/13 05:52:44;;;;;;;;;;;;;;;15.97;37.38;102951.81;5068418;28;1215;-56
2023/02/13 05:55:10;;;;;;;;;;;;;;;16.91;35.70;102950.28;5076852;28;1241;-56
2023/02/13 05:57:35;;;;;;;;;;;;;;;15.99;37.48;102967.00;5076615;28;1269;-57
2023/02/13 06:00:01;;;;;;;;;;;;;;;16.10;37.29;102962.72;5076555;28;1178;-54
2023/02/13 06:02:26;;;;;;;;;;;;;;;16.20;36.86;102962.25;5076748;28;1233;-56
2023/02/13 06:04:51;;;;;;;;;;;;;;;17.20;35.05;102952.59;5076112;28;1906;-51
2023/02/13 06:07:17;;;;;;;;;;;;;;;18.10;33.07;102960.34;5076350;28;1178;-55
2023/02/13 06:09:42;;;;;;;;;;;;;;;16.52;36.32;102960.44;5076478;28;1083;-54
2023/02/13 06:12:08;;;;;;;;;;;;;;;16.03;37.19;102962.75;5076583;28;1066;-56
2023/02/13 06:14:33;;;;;;;;;;;;;;;17.14;35.03;102956.22;5076476;28;1209;-57
2023/02/13 06:16:59;;;;;;;;;;;;;;;17.34;34.83;102950.56;5076268;28;2403;-58
2023/02/13 06:19:25;;;;;;;;;;;;;;;16.92;35.34;102962.09;5076693;28;1031;-54
2023/02/13 06:21:50;;;;;;;;;;;;;;;16.37;36.45;102963.44;5076303;28;957;-57
2023/02/13 06:24:15;;;;;;;;;;;;;;;16.08;37.09;102959.34;5076491;28;1097;-57
2023/02/13 06:26:41;;;;;;;;;;;;;;;15.77;37.73;102960.03;5075951;28;1905;-58
2023/02/13 06:29:08;;;;;;;;;;;;;;;15.56;38.16;102962.00;5076639;28;1154;-55
2023/02/13 06:31:33;;;;;;;;;;;;;;;15.43;38.20;102956.50;5075733;28;1229;-55
2023/02/13 06:33:59;;;;;;;;;;;;;;;15.23;38.62;102954.63;5061770;28;1190;-56
2023/02/13 06:36:24;;;;;;;;;;;;;;;15.10;38.76;102962.88;5076368;28;1426;-58
2023/02/13 06:38:50;;;;;;;;;;;;;;;16.15;36.82;102960.16;5076049;28;1038;-57
2023/02/13 06:41:15;;;;;;;;;;;;;;;17.31;34.51;102951.84;5075925;28;1023;-56
2023/02/13 06:43:40;;;;;;;;;;;;;;;16.25;36.35;102966.03;5058351;28;1168;-56
2023/02/13 06:46:06;;;;;;;;;;;;;;;15.67;37.65;102968.72;5074416;28;2310;-57
2023/02/13 06:48:32;;;;;;;;;;;;;;;15.34;38.38;102958.63;5075931;28;1186;-56
2023/02/13 06:50:57;;;;;;;;;;;;;;;15.14;38.77;102967.72;5076151;28;1019;-50
2023/02/13 06:53:24;;;;;;;;;;;;;;;16.69;35.90;102969.00;5075690;28;980;-57
2023/02/13 06:55:50;;;;;;;;;;;;;;;17.32;34.44;102960.91;5076553;28;1317;-56
2023/02/13 06:58:16;;;;;;;;;;;;;;;16.13;36.50;102967.78;5071005;28;1273;-50
2023/02/13 07:00:42;;;;;;;;;;;;;;;15.66;37.52;102956.91;5068286;28;1198;-57
2023/02/13 07:03:08;;;;;;;;;;;;;;;15.34;38.41;102967.69;5061898;28;1222;-53
2023/02/13 07:05:34;;;;;;;;;;;;;;;15.25;38.71;102968.13;5075548;28;1897;-54
2023/02/13 07:07:59;;;;;;;;;;;;;;;16.88;35.30;102975.44;5075790;28;1078;-52
2023/02/13 07:10:25;;;;;;;;;;;;;;;17.39;34.20;102959.81;5076185;28;1090;-54
2023/02/13 07:12:50;;;;;;;;;;;;;;;16.20;36.39;102965.00;5075975;28;1066;-56
2023/02/13 07:15:15;;;;;;;;;;;;;;;15.65;37.67;102963.44;5075801;28;1190;-53
2023/02/13 07:17:41;;;;;;;;;;;;;;;15.38;38.10;102960.75;5075359;28;1820;-54
2023/02/13 07:20:07;;;;;;;;;;;;;;;15.19;38.70;102964.31;5075331;28;1206;-55
2023/02/13 07:22:33;;;;;;;;;;;;;;;16.95;35.30;102949.81;5070683;28;2187;-57
2023/02/13 07:24:58;;;;;;;;;;;;;;;16.96;35.01;102962.47;5075563;28;1972;-59
2023/02/13 07:27:24;;;;;;;;;;;;;;;15.68;37.72;102960.28;5084999;28;1843;-55
2023/02/13 07:29:50;;;;;;;;;;;;;;;17.45;34.52;102958.91;5083176;28;1824;-51
2023/02/13 07:32:15;;;;;;;;;;;;;;;16.59;35.64;102963.97;5078579;28;2306;-51
2023/02/13 07:34:40;;;;;;;;;;;;;;;15.79;37.62;102963.44;5077685;28;1899;-56
2023/02/13 07:37:06;;;;;;;;;;;;;;;16.79;35.98;102964.91;5086739;28;2018;-58
2023/02/13 07:39:31;;;;;;;;;;;;;;;15.91;37.29;102959.00;5075506;28;1034;-54
2023/02/13 07:41:57;;;;;;;;;;;;;;;16.30;36.73;102956.28;5075179;28;1089;-57
2023/02/13 07:44:24;;;;;;;;;;;;;;;16.87;35.19;102954.50;5037784;28;1897;-57
2023/02/13 07:46:50;;;;;;;;;;;;;;;15.85;37.45;102948.88;5055824;28;1134;-58
2023/02/13 07:49:15;;;;;;;;;;;;;;;16.68;35.82;102953.56;5052760;28;1092;-59
2023/02/13 07:51:41;;;;;;;;;;;;;;;16.10;36.78;102939.94;5055176;28;1191;-61
2023/02/13 07:54:06;;;;;;;;;;;;;;;17.15;34.99;102930.41;5055593;28;1078;-59
2023/02/13 07:56:31;;;;;;;;;;;;;;;18.27;33.01;102933.03;5051962;28;2284;-60
2023/02/13 07:58:57;;;;;;;;;;;;;;;18.23;33.08;102925.44;5055347;28;1909;-60
2023/02/13 08:01:23;;;;;;;;;;;;;;;16.71;35.68;102931.13;5061011;28;2234;-59
2023/02/13 08:03:50;;;;;;;;;;;;;;;16.14;36.83;102930.19;5057669;28;1854;-59
2023/02/13 08:06:15;;;;;;;;;;;;;;;15.92;37.55;102933.22;5054701;28;1971;-61
2023/02/13 08:08:41;;;;;;;;;;;;;;;17.17;35.31;102931.88;5058791;28;2030;-61
2023/02/13 08:13:51;;;;;;;;;;;;;;;15.63;38.01;102932.66;5055574;28;1047;-60
2023/02/13 08:16:16;;;;;;;;;;;;;;;16.92;35.68;102929.94;5055394;28;1106;-57
2023/02/13 08:18:42;;;;;;;;;;;;;;;16.18;36.84;102940.50;5055470;28;892;-60
2023/02/13 08:21:07;;;;;;;;;;;;;;;15.73;37.71;102948.66;5056983;28;1225;-57
2023/02/13 08:23:33;;;;;;;;;;;;;;;17.31;34.68;102943.59;5058596;28;1318;-60
2023/02/13 08:25:59;;;;;;;;;;;;;;;16.01;37.00;102942.91;5058802;28;1973;-61
2023/02/13 08:28:25;;;;;;;;;;;;;;;15.68;38.06;102956.69;5058762;28;1143;-60
2023/02/13 08:30:50;;;;;;;;;;;;;;;16.52;36.05;102943.09;5058523;28;1202;-57
2023/02/13 08:33:16;;;;;;;;;;;;;;;15.63;37.96;102935.41;5058711;28;1061;-62
2023/02/13 08:35:41;;;;;;;;;;;;;;;17.35;34.83;102928.31;5058628;28;1199;-59
2023/02/13 08:38:07;;;;;;;;;;;;;;;16.28;36.71;102937.28;5058540;28;1098;-61
2023/02/13 08:40:33;;;;;;;;;;;;;;;15.78;37.66;102937.91;5057821;28;1025;-62
2023/02/13 08:43:02;;;;;;;;;;;;;;;16.84;36.00;102941.19;5065868;28;1903;-56
2023/02/13 08:45:27;;;;;;;;;;;;;;;16.24;36.80;102941.53;5076961;28;1918;-60
2023/02/13 08:47:56;;;;;;;;;;;;;;;16.88;35.59;102936.09;5066540;28;1285;-60
2023/02/13 08:50:22;;;;;;;;;;;;;;;17.61;34.11;102938.22;5058131;28;1210;-60
2023/02/13 08:52:47;;;;;;;;;;;;;;;16.17;36.90;102938.84;5075787;28;991;-63
2023/02/13 08:55:13;;;;;;;;;;;;;;;15.89;37.47;102939.16;5077106;28;1055;-61
2023/02/13 08:57:38;;;;;;;;;;;;;;;15.81;37.71;102925.66;5078123;28;1218;-60
2023/02/13 09:00:04;;;;;;;;;;;;;;;16.83;35.61;102927.66;5077752;28;1135;-60
2023/02/13 09:02:30;;;;;;;;;;;;;;;15.86;37.33;102925.88;5077842;28;1225;-62
2023/02/13 09:04:55;;;;;;;;;;;;;;;17.63;34.41;102932.50;5074353;28;1906;-62
2023/02/13 09:07:21;;;;;;;;;;;;;;;16.46;36.38;102919.28;5069252;28;1242;-63
2023/02/13 09:09:46;;;;;;;;;;;;;;;15.95;37.44;102918.22;5077213;28;1213;-62
2023/02/13 09:12:12;;;;;;;;;;;;;;;16.76;35.82;102914.84;5080807;28;1780;-62
2023/02/13 09:14:38;;;;;;;;;;;;;;;15.98;37.31;102921.41;5074019;28;1261;-61
2023/02/13 09:17:03;;;;;;;;;;;;;;;17.69;34.11;102906.81;5077580;28;1154;-61
2023/02/13 09:19:29;;;;;;;;;;;;;;;17.56;34.17;102910.56;5076371;28;1017;-63
2023/02/13 09:21:54;;;;;;;;;;;;;;;16.32;36.48;102904.78;5077048;28;950;-64
2023/02/13 09:24:20;;;;;;;;;;;;;;;17.32;34.82;102911.44;5077386;28;991;-63
2023/02/13 09:26:45;;;;;;;;;;;;;;;16.58;36.34;102903.78;5076935;28;1980;-63
2023/02/13 09:29:11;;;;;;;;;;;;;;;16.24;37.15;102897.63;5077191;28;1261;-60
2023/02/13 09:31:36;;;;;;;;;;;;;;;17.45;34.61;102886.56;5077632;28;1262;-59
2023/02/13 09:34:01;;;;;;;;;;;;;;;16.21;36.85;102889.81;5077527;28;1134;-61
2023/02/13 09:36:27;;;;;;;;;;;;;;;17.37;34.99;102884.94;5076424;28;1150;-60
2023/02/13 09:38:53;;;;;;;;;;;;;;;16.89;35.57;102872.69;5074131;28;1411;-60
2023/02/13 09:41:19;;;;;;;;;;;;;;;16.08;37.12;102864.13;5066314;28;1970;-60
2023/02/13 09:43:52;;;;;;;;;;;;;;;16.48;36.47;102862.19;5063558;28;1227;-59
2023/02/13 09:46:22;;;;;;;;;;;;;;;16.26;37.00;102865.31;5038746;28;1980;-58
2023/02/13 09:48:51;;;;;;;;;;;;;;;16.32;36.86;102856.19;5055466;28;1190;-61
2023/02/13 09:51:17;;;;;;;;;;;;;;;17.38;34.54;102839.88;5044539;28;1072;-60
2023/02/13 09:53:45;;;;;;;;;;;;;;;16.19;36.97;102850.78;5071383;28;1273;-59
2023/02/13 09:56:18;;;;;;;;;;;;;;;16.70;36.45;102843.44;5040546;28;1266;-60
2023/02/13 09:58:47;;;;;;;;;;;;;;;16.29;36.83;102831.94;5056754;28;1099;-62
2023/02/13 10:01:22;;;;;;;;;;;;;;;17.28;34.90;102834.06;5039191;28;1072;-60
2023/02/13 10:04:07;;;;;;;;;;;;;;;17.51;34.50;102813.28;5056689;28;1156;-61
2023/02/13 10:06:36;;;;;;;;;;;;;;;16.23;36.94;102819.09;5043948;28;1981;-60
2023/02/13 10:09:28;;;;;;;;;;;;;;;15.92;37.53;102817.97;5056823;28;1043;-60
2023/02/13 10:12:16;;;;;;;;;;;;;;;17.21;35.31;102808.56;5038175;28;1925;-60
2023/02/13 10:14:57;;;;;;;;;;;;;;;16.10;37.07;102803.53;5026345;28;981;-60
2023/02/13 10:17:31;;;;;;;;;;;;;;;15.68;37.93;102801.22;5038092;28;1116;-59
2023/02/13 10:20:20;;;;;;;;;;;;;;;16.99;35.76;102802.66;5040582;28;885;-60
2023/02/13 10:22:48;;;;;;;;;;;;;;;15.89;37.39;102796.47;5052597;28;1280;-60
2023/02/13 10:25:15;;;;;;;;;;;;;;;17.62;34.29;102787.75;5055995;28;1982;-63
2023/02/13 10:27:43;;;;;;;;;;;;;;;17.02;35.13;102792.03;5039045;28;1028;-60
2023/02/13 10:30:16;;;;;;;;;;;;;;;16.20;37.09;102790.19;5056411;28;1082;-61
2023/02/13 10:32:47;;;;;;;;;;;;;;;17.76;34.13;102794.75;5069694;28;941;-58
2023/02/13 10:35:23;;;;;;;;;;;;;;;16.39;36.70;102790.25;5056061;28;1072;-60
2023/02/13 10:37:50;;;;;;;;;;;;;;;16.74;36.26;102785.06;5025616;28;977;-61
2023/02/13 10:40:16;;;;;;;;;;;;;;;16.59;35.94;102782.69;5038845;28;1135;-60
2023/02/13 10:42:41;;;;;;;;;;;;;;;15.93;37.43;102774.94;5061415;28;2063;-57
2023/02/13 10:45:25;;;;;;;;;;;;;;;16.21;37.20;102771.78;5075566;28;1882;-58
2023/02/13 10:47:54;;;;;;;;;;;;;;;16.20;37.14;102772.84;5075990;28;1058;-56
2023/02/13 10:50:29;;;;;;;;;;;;;;;17.52;34.50;102757.22;5075712;28;1020;-61
2023/02/13 10:53:07;;;;;;;;;;;;;;;17.75;33.90;102767.47;5075182;28;1127;-57
2023/02/13 10:55:44;;;;;;;;;;;;;;;16.43;36.81;102762.09;5075757;28;1031;-57
2023/02/13 10:58:12;;;;;;;;;;;;;;;16.06;37.30;102759.25;5076235;28;1142;-54
2023/02/13 11:00:45;;;;;;;;;;;;;;;15.85;37.67;102762.31;5075505;28;1254;-55
2023/02/13 11:03:21;;;;;;;;;;;;;;;17.31;35.00;102756.63;5064337;28;1203;-60
2023/02/13 11:05:47;;;;;;;;;;;;;;;16.12;37.14;102756.66;5069490;28;1918;-56
2023/02/13 11:08:15;;;;;;;;;;;;;;;17.41;34.72;102748.66;5075731;28;1324;-56
2023/02/13 11:10:40;;;;;;;;;;;;;;;16.87;35.54;102748.41;5075694;28;1206;-56
2023/02/13 11:13:16;;;;;;;;;;;;;;;16.09;37.08;102741.50;5071506;28;2124;-58
2023/02/13 11:15:41;;;;;;;;;;;;;;;15.82;37.86;102735.34;5076062;28;1138;-54
2023/02/13 11:18:14;;;;;;;;;;;;;;;17.44;34.80;102737.19;5076402;28;1094;-61
2023/02/13 11:20:43;;;;;;;;;;;;;;;16.09;37.13;102736.00;5069882;28;1032;-60
2023/02/13 11:23:29;;;;;;;;;;;;;;;15.80;37.98;102726.50;5067084;28;1210;-61
2023/02/13 11:26:00;;;;;;;;;;;;;;;17.43;34.75;102735.53;5052100;28;1905;-60
2023/02/13 11:28:30;;;;;;;;;;;;;;;16.28;36.68;102728.66;5072730;28;1113;-55
2023/02/13 11:31:19;;;;;;;;;;;;;;;18.09;33.50;102721.91;5074001;28;1293;-56
2023/02/13 11:33:44;;;;;;;;;;;;;;;17.42;34.70;102711.84;5074906;28;1181;-54
2023/02/13 11:36:14;;;;;;;;;;;;;;;16.55;36.68;102717.44;5075941;28;1106;-57
2023/02/13 11:38:39;;;;;;;;;;;;;;;15.99;37.68;102711.81;5079822;28;1229;-59
2023/02/13 11:41:09;;;;;;;;;;;;;;;17.13;35.58;102699.72;5067952;28;1023;-57
2023/02/13 11:43:36;;;;;;;;;;;;;;;16.77;36.21;102709.63;5084711;28;1823;-55
2023/02/13 11:46:05;;;;;;;;;;;;;;;18.49;33.04;102698.34;5072795;28;1977;-58
2023/02/13 11:48:31;;;;;;;;;;;;;;;17.20;35.17;102683.16;5064564;28;1027;-59
2023/02/13 11:50:56;;;;;;;;;;;;;;;16.57;36.57;102683.19;5075045;28;1249;-61
2023/02/13 11:53:22;;;;;;;;;;;;;;;16.23;37.40;102687.34;5075484;28;1222;-58
2023/02/13 11:56:06;;;;;;;;;;;;;;;17.03;35.78;102678.28;5078371;28;1103;-63
2023/02/13 11:58:32;;;;;;;;;;;;;;;16.16;37.53;102670.91;5067829;28;1024;-57
2023/02/13 12:01:17;;;;;;;;;;;;;;;17.61;34.81;102665.00;5075383;28;1122;-60
2023/02/13 12:03:43;;;;;;;;;;;;;;;16.39;36.80;102664.78;5063686;28;1785;-64
2023/02/13 12:06:12;;;;;;;;;;;;;;;16.12;37.59;102663.34;5079138;28;1918;-59
2023/02/13 12:08:38;;;;;;;;;;;;;;;16.75;36.23;102663.13;5069024;28;1122;-58
2023/02/13 12:11:26;;;;;;;;;;;;;;;15.98;37.98;102662.63;5058891;28;1210;-53
2023/02/13 12:13:52;;;;;;;;;;;;;;;15.77;38.16;102655.56;5080954;28;2209;-59
2023/02/13 12:16:36;;;;;;;;;;;;;;;17.18;35.54;102655.03;5077665;28;1187;-57
2023/02/13 12:19:12;;;;;;;;;;;;;;;15.99;37.87;102664.28;5078673;28;1202;-60
2023/02/13 12:21:41;;;;;;;;;;;;;;;16.21;37.22;102651.84;5077841;28;953;-61
2023/02/13 12:24:33;;;;;;;;;;;;;;;16.21;37.44;102646.34;5079024;28;1191;-59
2023/02/13 12:26:58;;;;;;;;;;;;;;;15.69;38.22;102654.78;5075936;28;1532;-60
2023/02/13 12:29:42;;;;;;;;;;;;;;;16.86;36.15;102646.97;5068654;28;1308;-61
2023/02/13 12:32:14;;;;;;;;;;;;;;;15.87;38.14;102642.25;5077247;28;1210;-59
2023/02/13 12:34:58;;;;;;;;;;;;;;;17.63;34.77;102640.88;5076717;28;1104;-59
2023/02/13 12:37:27;;;;;;;;;;;;;;;16.28;37.43;102632.59;5078464;28;1090;-60
2023/02/13 12:39:52;;;;;;;;;;;;;;;15.82;38.23;102636.56;5064006;28;1131;-59
2023/02/13 12:42:25;;;;;;;;;;;;;;;16.57;36.77;102631.00;5073847;28;2353;-58
2023/02/13 12:44:50;;;;;;;;;;;;;;;16.13;37.47;102627.47;5075655;28;1980;-62
2023/02/13 12:47:16;;;;;;;;;;;;;;;18.05;33.98;102627.09;5076941;28;1222;-58
2023/02/13 12:50:00;;;;;;;;;;;;;;;16.57;36.85;102630.19;5072184;28;1154;-60
2023/02/13 12:52:32;;;;;;;;;;;;;;;16.36;37.25;102629.53;5077941;28;1103;-57
2023/02/13 12:55:00;;;;;;;;;;;;;;;16.67;36.42;102635.16;5078036;28;1226;-61
2023/02/13 12:57:44;;;;;;;;;;;;;;;16.03;37.75;102627.13;5076775;28;1182;-56
2023/02/13 13:00:14;;;;;;;;;;;;;;;17.77;34.67;102625.81;5072214;28;1076;-58
2023/02/13 13:02:58;;;;;;;;;;;;;;;16.43;36.90;102613.84;5081808;28;1043;-61
2023/02/13 13:05:42;;;;;;;;;;;;;;;15.99;37.90;102618.50;5077038;28;1907;-60
2023/02/13 13:08:26;;;;;;;;;;;;;;;17.02;36.19;102627.13;5076601;28;1167;-59
2023/02/13 13:11:11;;;;;;;;;;;;;;;15.95;38.11;102613.66;5075506;28;1100;-60
2023/02/13 13:13:49;;;;;;;;;;;;;;;17.32;35.57;102612.56;5078194;28;2158;-57
2023/02/13 13:16:24;;;;;;;;;;;;;;;16.61;36.41;102623.16;5063657;28;1290;-56
2023/02/13 13:18:52;;;;;;;;;;;;;;;15.86;37.92;102615.88;5076542;28;1142;-60
2023/02/13 13:21:21;;;;;;;;;;;;;;;17.01;35.77;102622.72;5077226;28;1246;-61
2023/02/13 13:24:04;;;;;;;;;;;;;;;16.10;37.47;102625.16;5077348;28;1230;-58
2023/02/13 13:26:34;;;;;;;;;;;;;;;18.03;34.08;102615.47;5077628;28;1906;-57
2023/02/13 13:29:00;;;;;;;;;;;;;;;16.72;36.49;102614.16;5076290;28;984;-61
2023/02/13 13:31:26;;;;;;;;;;;;;;;16.12;37.79;102605.72;5076582;28;1155;-53
2023/02/13 13:33:51;;;;;;;;;;;;;;;17.18;35.46;102603.66;5076061;28;1306;-58
2023/02/13 13:36:26;;;;;;;;;;;;;;;16.16;37.38;102606.94;5077253;28;1094;-60
2023/02/13 13:39:03;;;;;;;;;;;;;;;17.57;34.93;102604.16;5077784;28;1039;-60